createdAt,value
2023-05-18T00:00:19.580Z,93.10
2023-05-18T00:02:50.489Z,91.33
2023-05-18T00:05:20.457Z,91.96
2023-05-18T00:07:47.918Z,91.60
2023-05-18T00:10:15.568Z,91.73
2023-05-18T00:12:45.905Z,92.76
2023-05-18T00:15:13.341Z,91.08
2023-05-18T00:17:40.810Z,90.95
2023-05-18T00:20:09.802Z,91.47
2023-05-18T00:22:39.183Z,91.83
2023-05-18T00:25:07.011Z,91.37
2023-05-18T00:27:37.138Z,89.04
2023-05-18T00:30:06.344Z,89.21
2023-05-18T00:32:33.740Z,89.76
2023-05-18T00:35:16.705Z,88.46
2023-05-18T00:37:47.075Z,89.12
2023-05-18T00:40:14.515Z,88.99
2023-05-18T00:42:42.032Z,88.71
2023-05-18T00:45:10.494Z,89.00
2023-05-18T00:47:37.965Z,89.63
2023-05-18T00:50:06.018Z,88.08
2023-05-18T00:52:34.960Z,88.51
2023-05-18T00:55:02.470Z,87.86
2023-05-18T00:57:29.966Z,86.38
2023-05-18T01:00:00.569Z,88.14
2023-05-18T01:02:30.624Z,89.70
2023-05-18T01:04:58.199Z,89.60
2023-05-18T01:07:26.634Z,90.21
2023-05-18T01:09:54.561Z,92.09
2023-05-18T01:12:29.576Z,91.06
2023-05-18T01:15:08.120Z,90.27
2023-05-18T01:17:50.458Z,92.93
2023-05-18T01:20:27.731Z,91.37
2023-05-18T01:23:33.933Z,91.79
2023-05-18T01:26:17.713Z,92.57
2023-05-18T01:28:46.965Z,91.87
2023-05-18T01:31:16.462Z,91.35
2023-05-18T01:33:45.174Z,91.79
2023-05-18T01:36:12.783Z,90.79
2023-05-18T01:38:43.849Z,90.58
2023-05-18T01:41:28.344Z,89.81
2023-05-18T01:44:04.367Z,89.55
2023-05-18T01:46:43.620Z,84.94
2023-05-18T01:49:23.922Z,87.00
2023-05-18T01:51:53.443Z,86.99
2023-05-18T01:54:24.353Z,86.08
2023-05-18T01:56:54.404Z,85.68
2023-05-18T01:59:24.095Z,83.81
2023-05-18T02:01:51.974Z,84.90
2023-05-18T02:04:28.288Z,83.89
2023-05-18T02:06:56.299Z,83.15
2023-05-18T02:09:24.057Z,83.80
2023-05-18T02:11:51.853Z,84.31
2023-05-18T02:14:19.303Z,85.79
2023-05-18T02:16:47.434Z,89.31
2023-05-18T02:19:15.097Z,88.86
2023-05-18T02:21:44.970Z,89.16
2023-05-18T02:24:12.864Z,90.11
2023-05-18T02:26:41.741Z,88.84
2023-05-18T02:29:14.372Z,89.33
2023-05-18T02:31:42.050Z,89.00
2023-05-18T02:34:10.429Z,88.06
2023-05-18T02:36:42.711Z,89.73
2023-05-18T02:39:10.556Z,87.50
2023-05-18T02:41:38.507Z,87.05
2023-05-18T02:44:06.366Z,86.55
2023-05-18T02:46:33.805Z,87.94
2023-05-18T02:49:01.336Z,85.30
2023-05-18T02:51:30.390Z,85.24
2023-05-18T02:53:58.087Z,86.57
2023-05-18T02:56:26.356Z,84.35
2023-05-18T02:59:01.390Z,84.39
2023-05-18T03:01:34.938Z,82.85
2023-05-18T03:04:03.020Z,82.38
2023-05-18T03:06:31.629Z,84.31
2023-05-18T03:08:59.324Z,83.58
2023-05-18T03:11:35.607Z,84.04
2023-05-18T03:14:03.101Z,84.43
2023-05-18T03:16:30.485Z,83.27
2023-05-18T03:18:59.134Z,85.26
2023-05-18T03:21:36.344Z,86.20
2023-05-18T03:24:04.183Z,85.83
2023-05-18T03:26:33.221Z,85.79
2023-05-18T03:29:02.138Z,84.65
2023-05-18T03:31:29.751Z,84.04
2023-05-18T03:33:59.540Z,82.67
2023-05-18T03:36:28.306Z,83.06
2023-05-18T03:38:55.958Z,81.17
2023-05-18T03:41:23.786Z,80.51
2023-05-18T03:43:53.042Z,80.74
2023-05-18T03:46:20.468Z,80.23
2023-05-18T03:48:48.076Z,79.69
2023-05-18T03:51:23.752Z,77.85
2023-05-18T03:53:51.124Z,77.95
2023-05-18T03:56:18.454Z,77.77
2023-05-18T03:58:45.935Z,76.12
2023-05-18T04:01:13.400Z,76.54
2023-05-18T04:03:42.701Z,76.69
2023-05-18T04:06:11.748Z,74.17
2023-05-18T04:08:40.492Z,73.43
2023-05-18T04:11:08.005Z,73.99
2023-05-18T04:13:38.290Z,73.95
2023-05-18T04:16:06.195Z,74.21
2023-05-18T04:18:33.762Z,73.99
2023-05-18T04:21:03.163Z,73.83
2023-05-18T04:23:31.592Z,73.09
2023-05-18T04:26:00.152Z,71.68
2023-05-18T04:28:28.733Z,70.38
2023-05-18T04:30:56.224Z,70.35
2023-05-18T04:33:24.123Z,70.37
2023-05-18T04:35:55.195Z,70.79
2023-05-18T04:38:23.545Z,69.20
2023-05-18T04:40:51.886Z,69.72
2023-05-18T04:43:21.069Z,69.87
2023-05-18T04:45:51.357Z,70.33
2023-05-18T04:48:19.274Z,71.05
2023-05-18T04:50:47.504Z,70.29
2023-05-18T04:53:18.182Z,71.09
2023-05-18T04:55:46.527Z,70.23
2023-05-18T04:58:13.872Z,70.70
2023-05-18T05:00:41.318Z,70.92
2023-05-18T05:03:08.995Z,71.21
2023-05-18T05:05:36.644Z,70.92
2023-05-18T05:08:06.166Z,72.42
2023-05-18T05:10:33.638Z,69.58
2023-05-18T05:13:01.080Z,70.13
2023-05-18T05:15:28.835Z,69.22
2023-05-18T05:18:00.084Z,70.02
2023-05-18T05:20:27.622Z,69.55
2023-05-18T05:22:55.185Z,69.90
2023-05-18T05:25:25.640Z,71.99
2023-05-18T05:27:53.054Z,73.52
2023-05-18T05:30:22.064Z,77.49
2023-05-18T05:32:49.500Z,77.69
2023-05-18T05:35:17.040Z,77.89
2023-05-18T05:37:45.749Z,79.10
2023-05-18T05:40:16.238Z,72.67
2023-05-18T05:42:46.222Z,78.62
2023-05-18T05:45:14.149Z,77.09
2023-05-18T05:47:55.223Z,72.20
2023-05-18T05:50:24.241Z,76.94
2023-05-18T05:52:54.330Z,74.44
2023-05-18T05:55:26.273Z,68.95
2023-05-18T05:57:53.850Z,67.36
2023-05-18T06:00:23.747Z,64.96
2023-05-18T06:02:54.500Z,67.85
2023-05-18T06:05:32.804Z,70.81
2023-05-18T06:08:00.539Z,70.52
2023-05-18T06:10:28.053Z,70.50
2023-05-18T06:12:56.083Z,62.24
2023-05-18T06:15:27.533Z,60.87
2023-05-18T06:17:55.019Z,60.88
2023-05-18T06:20:23.170Z,58.87
2023-05-18T06:22:50.848Z,58.50
2023-05-18T06:25:24.412Z,59.34
2023-05-18T06:28:06.436Z,55.90
2023-05-18T06:30:47.096Z,55.70
2023-05-18T06:33:21.472Z,55.92
2023-05-18T06:35:49.266Z,57.83
2023-05-18T06:38:16.645Z,56.77
2023-05-18T06:40:44.502Z,55.10
2023-05-18T06:43:11.916Z,57.49
2023-05-18T06:45:47.200Z,54.80
2023-05-18T06:48:31.023Z,57.09
2023-05-18T06:50:58.543Z,55.42
2023-05-18T06:53:26.395Z,56.99
2023-05-18T06:55:53.884Z,58.96
2023-05-18T06:58:21.490Z,53.32
2023-05-18T07:00:49.367Z,53.65
2023-05-18T07:03:17.405Z,53.77
2023-05-18T07:05:44.898Z,51.20
2023-05-18T07:08:12.390Z,51.33
2023-05-18T07:10:39.872Z,52.02
2023-05-18T07:13:07.321Z,52.02
2023-05-18T07:15:35.023Z,50.60
2023-05-18T07:18:03.613Z,49.75
2023-05-18T07:20:31.807Z,48.30
2023-05-18T07:22:59.153Z,49.15
2023-05-18T07:25:26.661Z,49.01
2023-05-18T07:27:55.059Z,48.38
2023-05-18T07:30:23.028Z,48.64
2023-05-18T07:32:53.293Z,48.80
2023-05-18T07:35:26.968Z,48.40
2023-05-18T07:37:54.697Z,51.94
2023-05-18T07:40:22.351Z,48.90
2023-05-18T07:42:49.810Z,48.12
2023-05-18T07:45:17.299Z,46.48
2023-05-18T07:47:44.706Z,46.41
2023-05-18T07:50:12.214Z,48.54
2023-05-18T07:52:39.600Z,45.29
2023-05-18T07:55:10.036Z,47.57
2023-05-18T07:57:37.520Z,43.51
2023-05-18T08:00:06.671Z,44.99
2023-05-18T08:02:40.770Z,46.36
2023-05-18T08:05:10.695Z,45.24
2023-05-18T08:07:38.359Z,46.12
2023-05-18T08:10:07.086Z,46.63
2023-05-18T08:12:34.414Z,44.92
2023-05-18T08:15:02.111Z,46.15
2023-05-18T08:17:31.758Z,45.96
2023-05-18T08:19:59.716Z,47.23
2023-05-18T08:22:27.085Z,49.75
2023-05-18T08:24:54.809Z,49.53
2023-05-18T08:27:22.551Z,46.52
2023-05-18T08:29:49.965Z,48.34
2023-05-18T08:32:17.471Z,45.54
2023-05-18T08:34:46.139Z,47.09
2023-05-18T08:37:13.549Z,48.11
2023-05-18T08:39:41.037Z,49.28
2023-05-18T08:42:19.868Z,47.22
2023-05-18T08:45:07.895Z,44.86
2023-05-18T08:47:37.391Z,47.51
2023-05-18T08:50:06.231Z,46.53
2023-05-18T08:52:36.680Z,44.42
2023-05-18T08:55:10.080Z,43.51
2023-05-18T08:57:39.649Z,47.81
2023-05-18T09:00:10.039Z,46.54
2023-05-18T09:02:38.711Z,47.92
2023-05-18T09:05:10.099Z,46.43
2023-05-18T09:07:40.899Z,46.38
2023-05-18T09:10:11.242Z,47.57
2023-05-18T09:12:41.658Z,46.39
2023-05-18T09:15:13.672Z,47.10
2023-05-18T09:17:41.097Z,46.89
2023-05-18T09:20:09.346Z,46.66
2023-05-18T09:22:37.089Z,46.19
2023-05-18T09:25:08.287Z,47.89
2023-05-18T09:27:35.747Z,43.61
2023-05-18T09:30:04.024Z,47.96
2023-05-18T09:32:36.725Z,47.83
2023-05-18T09:35:08.510Z,47.71
2023-05-18T09:37:36.525Z,48.07
2023-05-18T09:40:08.661Z,47.50
2023-05-18T09:42:40.167Z,47.69
2023-05-18T09:45:23.755Z,47.63
2023-05-18T09:47:51.746Z,47.62
2023-05-18T09:50:20.514Z,47.74
2023-05-18T09:52:50.154Z,46.58
2023-05-18T09:55:20.831Z,44.70
2023-05-18T09:57:51.277Z,46.24
2023-05-18T10:00:21.164Z,47.22
2023-05-18T10:02:52.636Z,45.92
2023-05-18T10:05:28.257Z,46.86
2023-05-18T10:07:56.942Z,43.72
2023-05-18T10:10:27.412Z,46.87
2023-05-18T10:12:57.519Z,47.93
2023-05-18T10:15:25.670Z,49.68
2023-05-18T10:17:56.832Z,48.47
2023-05-18T10:20:26.019Z,47.75
2023-05-18T10:22:56.107Z,47.99
2023-05-18T10:25:26.572Z,50.35
2023-05-18T10:28:07.803Z,50.21
2023-05-18T10:30:36.086Z,48.50
2023-05-18T10:33:11.272Z,51.03
2023-05-18T10:35:45.880Z,50.73
2023-05-18T10:38:13.791Z,53.13
2023-05-18T10:40:46.040Z,48.76
2023-05-18T10:43:18.884Z,50.99
2023-05-18T10:45:55.021Z,49.80
2023-05-18T10:48:23.983Z,46.87
2023-05-18T10:50:55.093Z,48.73
2023-05-18T10:53:27.165Z,47.02
2023-05-18T10:55:54.535Z,46.21
2023-05-18T10:58:27.915Z,46.82
2023-05-18T11:00:59.189Z,42.69
2023-05-18T11:03:27.612Z,47.09
2023-05-18T11:06:15.051Z,42.60
2023-05-18T11:08:47.786Z,42.59
2023-05-18T11:11:18.692Z,44.32
2023-05-18T11:13:51.329Z,47.28
2023-05-18T11:16:19.241Z,47.09
2023-05-18T11:18:52.129Z,44.19
2023-05-18T11:21:35.905Z,43.13
2023-05-18T11:24:18.244Z,44.87
2023-05-18T11:26:51.121Z,47.44
2023-05-18T11:29:34.104Z,46.61
2023-05-18T11:32:01.608Z,43.95
2023-05-18T11:34:47.778Z,43.60
2023-05-18T11:37:16.666Z,42.31
2023-05-18T11:40:08.445Z,44.60
2023-05-18T11:42:37.704Z,46.87
2023-05-18T11:45:13.182Z,46.42
2023-05-18T11:47:41.520Z,48.07
2023-05-18T11:50:13.081Z,47.83
2023-05-18T11:52:46.944Z,47.62
2023-05-18T11:55:16.376Z,45.59
2023-05-18T11:57:48.635Z,47.93
2023-05-18T12:00:17.151Z,49.61
2023-05-18T12:02:46.454Z,46.83
2023-05-18T12:05:14.695Z,45.95
2023-05-18T12:07:42.570Z,48.16
2023-05-18T12:10:17.640Z,47.40
2023-05-18T12:12:49.131Z,47.54
2023-05-18T12:15:17.374Z,45.46
2023-05-18T12:17:46.465Z,46.35
2023-05-18T12:20:14.719Z,45.63
2023-05-18T12:22:43.759Z,45.33
2023-05-18T12:25:11.871Z,46.69
2023-05-18T12:27:40.832Z,44.60
2023-05-18T12:30:13.760Z,45.17
2023-05-18T12:32:46.485Z,46.83
2023-05-18T12:35:13.953Z,47.44
2023-05-18T12:37:46.125Z,49.80
2023-05-18T12:40:15.926Z,49.27
2023-05-18T12:42:53.888Z,44.58
2023-05-18T12:45:26.990Z,46.25
2023-05-18T12:47:55.626Z,46.17
2023-05-18T12:50:26.837Z,46.18
2023-05-18T12:52:55.887Z,47.34
2023-05-18T12:55:30.609Z,48.35
2023-05-18T12:57:59.298Z,46.61
2023-05-18T13:00:26.606Z,49.49
2023-05-18T13:02:53.949Z,45.11
2023-05-18T13:05:24.687Z,44.10
2023-05-18T13:07:52.683Z,46.93
2023-05-18T13:10:20.492Z,45.25
2023-05-18T13:12:49.844Z,44.99
2023-05-18T13:15:22.800Z,44.49
2023-05-18T13:18:03.040Z,46.66
2023-05-18T13:20:41.571Z,47.37
2023-05-18T13:23:11.880Z,46.75
2023-05-18T13:25:39.802Z,45.57
2023-05-18T13:28:09.320Z,42.58
2023-05-18T13:30:37.032Z,44.46
2023-05-18T13:33:12.331Z,44.45
2023-05-18T13:35:42.181Z,44.12
2023-05-18T13:38:14.080Z,45.66
2023-05-18T13:40:42.514Z,42.67
2023-05-18T13:43:11.937Z,43.37
2023-05-18T13:45:41.209Z,45.82
2023-05-18T13:48:10.640Z,44.28
2023-05-18T13:50:39.613Z,42.70
2023-05-18T13:53:07.302Z,43.68
2023-05-18T13:55:35.626Z,42.80
2023-05-18T13:58:02.989Z,43.01
2023-05-18T14:00:33.400Z,42.97
2023-05-18T14:03:01.536Z,44.73
2023-05-18T14:05:29.004Z,42.96
2023-05-18T14:07:56.849Z,44.10
2023-05-18T14:10:27.184Z,45.11
2023-05-18T14:12:54.432Z,44.41
2023-05-18T14:15:21.726Z,43.73
2023-05-18T14:17:49.155Z,44.47
2023-05-18T14:20:16.394Z,44.43
2023-05-18T14:22:43.733Z,46.33
2023-05-18T14:25:10.988Z,46.24
2023-05-18T14:27:38.356Z,46.08
2023-05-18T14:30:06.606Z,48.25
2023-05-18T14:32:33.906Z,46.34
2023-05-18T14:35:03.827Z,44.13
2023-05-18T14:37:32.881Z,41.83
2023-05-18T14:40:00.484Z,40.82
2023-05-18T14:42:27.771Z,41.79
2023-05-18T14:44:55.113Z,42.73
2023-05-18T14:47:22.573Z,43.58
2023-05-18T14:49:49.864Z,43.68
2023-05-18T14:52:17.130Z,43.70
2023-05-18T14:54:45.273Z,44.02
2023-05-18T14:57:12.869Z,43.34
2023-05-18T14:59:40.127Z,46.26
2023-05-18T15:02:08.255Z,43.88
2023-05-18T15:04:36.117Z,44.17
2023-05-18T15:07:03.532Z,43.49
2023-05-18T15:09:30.820Z,43.75
2023-05-18T15:11:58.113Z,43.58
2023-05-18T15:14:25.749Z,43.01
2023-05-18T15:16:55.751Z,42.57
2023-05-18T15:19:23.590Z,43.12
2023-05-18T15:21:51.199Z,43.52
2023-05-18T15:24:18.534Z,44.27
2023-05-18T15:26:46.175Z,43.87
2023-05-18T15:29:13.721Z,43.08
2023-05-18T15:31:41.504Z,45.15
2023-05-18T15:34:08.906Z,42.83
2023-05-18T15:36:37.130Z,44.14
2023-05-18T15:39:05.148Z,43.03
2023-05-18T15:41:34.193Z,43.65
2023-05-18T15:44:02.002Z,43.36
2023-05-18T15:46:35.707Z,42.92
2023-05-18T15:49:04.019Z,43.01
2023-05-18T15:51:31.647Z,43.19
2023-05-18T15:53:59.112Z,43.02
2023-05-18T15:56:29.776Z,43.48
2023-05-18T15:58:57.280Z,43.77
2023-05-18T16:01:24.546Z,43.74
2023-05-18T16:03:51.937Z,43.82
2023-05-18T16:06:19.372Z,44.95
2023-05-18T16:08:46.725Z,43.85
2023-05-18T16:11:15.905Z,44.61
2023-05-18T16:13:48.248Z,43.96
2023-05-18T16:16:15.915Z,44.95
2023-05-18T16:18:45.706Z,44.95
2023-05-18T16:21:13.613Z,45.37
2023-05-18T16:23:41.733Z,44.54
2023-05-18T16:26:10.395Z,44.75
2023-05-18T16:28:38.020Z,44.87
2023-05-18T16:31:08.051Z,45.75
2023-05-18T16:33:35.486Z,46.89
2023-05-18T16:36:03.287Z,45.60
2023-05-18T16:38:31.666Z,46.40
2023-05-18T16:40:58.950Z,46.80
2023-05-18T16:43:26.437Z,46.82
2023-05-18T16:45:53.719Z,46.13
2023-05-18T16:48:21.243Z,46.77
2023-05-18T16:50:48.614Z,46.25
2023-05-18T16:53:16.981Z,47.42
2023-05-18T16:55:44.268Z,47.80
2023-05-18T16:58:11.735Z,47.85
2023-05-18T17:00:39.100Z,48.33
2023-05-18T17:03:06.569Z,48.66
2023-05-18T17:05:34.642Z,48.47
2023-05-18T17:08:01.986Z,48.76
2023-05-18T17:10:30.836Z,48.14
2023-05-18T17:12:59.882Z,49.11
2023-05-18T17:15:27.191Z,49.37
2023-05-18T17:17:54.689Z,51.57
2023-05-18T17:20:22.187Z,52.91
2023-05-18T17:22:49.567Z,54.29
2023-05-18T17:25:17.062Z,54.95
2023-05-18T17:27:44.532Z,54.14
2023-05-18T17:30:12.054Z,54.22
2023-05-18T17:32:39.763Z,54.82
2023-05-18T17:35:12.480Z,56.07
2023-05-18T17:37:41.513Z,58.23
2023-05-18T17:40:09.899Z,56.53
2023-05-18T17:42:37.247Z,58.15
2023-05-18T17:45:04.770Z,58.62
2023-05-18T17:47:32.187Z,57.72
2023-05-18T17:49:59.458Z,58.99
2023-05-18T17:52:26.809Z,58.04
2023-05-18T17:54:54.187Z,56.58
2023-05-18T17:57:23.002Z,57.26
2023-05-18T17:59:50.366Z,59.20
2023-05-18T18:02:17.856Z,60.06
2023-05-18T18:04:45.288Z,60.24
2023-05-18T18:07:12.898Z,60.72
2023-05-18T18:09:42.791Z,61.45
2023-05-18T18:12:10.572Z,62.16
2023-05-18T18:14:37.997Z,61.34
2023-05-18T18:17:05.867Z,61.53
2023-05-18T18:19:33.317Z,62.20
2023-05-18T18:22:00.888Z,63.21
2023-05-18T18:24:28.272Z,63.71
2023-05-18T18:26:56.200Z,63.51
2023-05-18T18:29:23.660Z,64.49
2023-05-18T18:31:51.122Z,64.63
2023-05-18T18:34:18.614Z,65.00
2023-05-18T18:36:47.789Z,64.82
2023-05-18T18:39:15.597Z,64.80
2023-05-18T18:41:43.119Z,65.69
2023-05-18T18:44:11.250Z,65.57
2023-05-18T18:46:39.390Z,66.99
2023-05-18T18:49:06.925Z,66.71
2023-05-18T18:51:34.409Z,66.99
2023-05-18T18:54:01.878Z,67.58
2023-05-18T18:56:29.435Z,67.03
2023-05-18T18:58:57.087Z,68.00
2023-05-18T19:01:24.636Z,67.75
2023-05-18T19:03:52.851Z,68.75
2023-05-18T19:06:20.358Z,69.75
2023-05-18T19:08:47.760Z,69.46
2023-05-18T19:11:15.341Z,69.28
2023-05-18T19:13:42.753Z,69.13
2023-05-18T19:16:10.468Z,69.09
2023-05-18T19:18:38.061Z,69.63
2023-05-18T19:21:08.590Z,70.42
2023-05-18T19:23:36.213Z,71.44
2023-05-18T19:26:03.765Z,71.11
2023-05-18T19:28:31.554Z,71.09
2023-05-18T19:30:59.065Z,72.27
2023-05-18T19:33:26.507Z,71.36
2023-05-18T19:35:54.706Z,72.70
2023-05-18T19:38:22.108Z,68.67
2023-05-18T19:40:49.581Z,70.17
2023-05-18T19:43:17.186Z,68.21
2023-05-18T19:45:44.840Z,69.50
2023-05-18T19:48:12.487Z,67.76
2023-05-18T19:50:39.999Z,65.02
2023-05-18T19:53:07.390Z,62.35
2023-05-18T19:55:34.862Z,61.71
2023-05-18T19:58:02.767Z,62.68
2023-05-18T20:00:30.522Z,62.87
2023-05-18T20:02:58.594Z,63.23
2023-05-18T20:05:26.224Z,64.90
2023-05-18T20:07:53.856Z,66.70
2023-05-18T20:10:21.256Z,66.99
2023-05-18T20:12:48.708Z,66.95
2023-05-18T20:15:16.141Z,66.06
2023-05-18T20:17:43.742Z,66.96
2023-05-18T20:20:12.956Z,67.55
2023-05-18T20:22:40.779Z,70.02
2023-05-18T20:25:08.576Z,69.14
2023-05-18T20:27:36.096Z,69.33
2023-05-18T20:30:04.252Z,71.25
2023-05-18T20:32:33.212Z,72.07
2023-05-18T20:35:00.774Z,71.51
2023-05-18T20:37:28.179Z,71.45
2023-05-18T20:39:57.457Z,71.09
2023-05-18T20:42:31.855Z,71.45
2023-05-18T20:44:59.275Z,72.80
2023-05-18T20:47:26.684Z,71.82
2023-05-18T20:49:54.191Z,72.42
2023-05-18T20:52:21.624Z,72.43
2023-05-18T20:54:49.022Z,72.40
2023-05-18T20:57:16.578Z,73.46
2023-05-18T20:59:46.400Z,74.46
2023-05-18T21:02:13.800Z,73.95
2023-05-18T21:04:41.170Z,74.32
2023-05-18T21:07:09.984Z,73.57
2023-05-18T21:09:37.467Z,74.14
2023-05-18T21:12:05.859Z,77.37
2023-05-18T21:14:33.245Z,73.84
2023-05-18T21:17:00.672Z,72.90
2023-05-18T21:19:28.112Z,71.85
2023-05-18T21:21:55.683Z,70.54
2023-05-18T21:24:23.087Z,71.27
2023-05-18T21:26:50.825Z,69.36
2023-05-18T21:29:18.212Z,69.95
2023-05-18T21:31:45.728Z,69.67
2023-05-18T21:34:13.782Z,73.36
2023-05-18T21:36:41.634Z,72.07
2023-05-18T21:39:09.569Z,71.94
2023-05-18T21:41:40.251Z,70.28
2023-05-18T21:44:08.429Z,72.11
2023-05-18T21:46:36.621Z,70.91
2023-05-18T21:49:05.924Z,70.79
2023-05-18T21:51:33.306Z,69.18
2023-05-18T21:54:04.360Z,70.25
2023-05-18T21:56:34.580Z,68.93
2023-05-18T21:59:02.046Z,69.15
2023-05-18T22:01:29.454Z,70.40
2023-05-18T22:03:57.007Z,71.25
2023-05-18T22:06:24.472Z,72.06
2023-05-18T22:08:52.245Z,71.26
2023-05-18T22:11:20.212Z,70.98
2023-05-18T22:13:47.578Z,71.31
2023-05-18T22:16:15.141Z,71.26
2023-05-18T22:18:42.606Z,70.91
2023-05-18T22:21:09.987Z,70.04
2023-05-18T22:23:39.168Z,71.50
2023-05-18T22:26:07.136Z,72.22
2023-05-18T22:28:34.595Z,72.08
2023-05-18T22:31:01.972Z,71.08
2023-05-18T22:33:29.427Z,71.18
2023-05-18T22:35:56.914Z,70.81
2023-05-18T22:38:24.477Z,71.59
2023-05-18T22:40:54.111Z,72.23
2023-05-18T22:43:24.627Z,72.64
2023-05-18T22:45:52.032Z,72.19
2023-05-18T22:48:19.488Z,73.84
2023-05-18T22:50:46.873Z,73.02
2023-05-18T22:53:14.371Z,72.96
2023-05-18T22:55:42.059Z,75.16
2023-05-18T22:58:09.460Z,74.06
2023-05-18T23:00:36.872Z,76.26
2023-05-18T23:03:04.324Z,75.14
2023-05-18T23:05:32.741Z,75.72
2023-05-18T23:08:02.805Z,76.19
2023-05-18T23:10:30.798Z,73.64
2023-05-18T23:12:59.824Z,72.06
2023-05-18T23:15:27.817Z,72.43
2023-05-18T23:18:00.051Z,73.43
2023-05-18T23:20:27.505Z,73.80
2023-05-18T23:22:54.924Z,73.86
2023-05-18T23:25:22.734Z,74.16
2023-05-18T23:27:50.236Z,73.77
2023-05-18T23:30:17.651Z,74.29
2023-05-18T23:32:46.890Z,74.36
2023-05-18T23:35:15.262Z,73.41
2023-05-18T23:37:42.831Z,73.57
2023-05-18T23:40:12.431Z,72.05
2023-05-18T23:42:40.204Z,71.69
2023-05-18T23:45:08.389Z,70.97
2023-05-18T23:47:36.211Z,70.66
2023-05-18T23:50:04.127Z,70.73
2023-05-18T23:52:33.244Z,70.63
2023-05-18T23:55:02.829Z,70.58
2023-05-18T23:57:31.569Z,70.39
2023-05-18T23:59:59.284Z,68.15
